Garibaldi, OR (97118)

12:59 PST le 14 février 2016 (GMT -0800)
bay view-pacific coast | | Change Station
CLOSE
Current Station
Stations météorologiques personnelles
Location: Garibaldi, OR
Altitude: 50 ft
Stations météo à proximité

Alt. 50 ft 45.56 °N, 123.91 °W | Updated 8 minutes ago

Couvert
Couvert
53.1 ° F
Paraît 53.1 ° F
N
4.0
Vent Variable Vent de Sud
Gusts 4.0 mph

Aujourd'hui
Haut(e) -- | Bas -- ° F
--% Risque de précip.
Hier
Haut(e) -- | Bas -- ° F
Precip. -- pouce
Pression 30.29 pouce
Visibilité 2.5 Miles terrestres
Nuages Nuageux 900 ft
Couvert 1300 ft
Point de rosée 53 ° F
Humidité 98%
Précipitations 1.04 pouce
Profondeur de la couche neigeuse Non disponible.
7:19 AM 5:40 PM
Lune montante, 45% visible
METAR KTMK 142055Z AUTO 21003KT 2 1/2SM DZ BKN009 OVC013 12/12 A3029 RMK AO2 P0005
Pression 30.29 pouce
Visibilité 2.5 Miles terrestres
Nuages Nuageux 900 ft
Couvert 1300 ft
Point de rosée 53 ° F
Humidité 98%
Précipitations 1.04 pouce
Profondeur de la couche neigeuse Non disponible.
7:19 AM 5:40 PM
Lune montante, 45% visible
METAR KTMK 142055Z AUTO 21003KT 2 1/2SM DZ BKN009 OVC013 12/12 A3029 RMK AO2 P0005

10-Day Weather Forecast

Almanac

Astronomie

Feb. 14, 2016 Lever Coucher
Temps réel
Crépuscule civil
Crépuscule nautique
Crépuscule astronomique
Lune
Durée de lumière visible
Longueur du jour
Tomorrow will be .
, % of the Moon is Illuminated

Extrêmes aujourd'hui

State Highs State Lows

Community

WunderPhotos

Upload Photos

1,892,882 Photos téléchargées !

WunderBlog® & News

Nearby

Qualité de l'air

  Qualité de l'air Indice de la qualité de l'air Polluant
Not available.

Épaisseur de neige

Station Depth Altitude

Activité sismique

Ville Distance Mag. Time & Date
Minimum magnitude displayed is 2.5.

Températures des eaux côtières

Lieu Température

Stations

Stations météo à proximité

Emplacement de la station Température Refroidissement éolien Point de rosée Humidité Vent Precip. Alt. Mise à jour Type
                   

Watches & Warnings

There are currently no watches in effect.